sensor_id;sensor_type;location;lat;lon;timestamp;P1;durP1;ratioP1;P2;durP2;ratioP2
75320;SDS011;63920;52.130;5.584;2022-11-28T00:01:37;13.45;;;10.18;;
75320;SDS011;63920;52.130;5.584;2022-11-28T00:04:06;17.90;;;10.82;;
75320;SDS011;63920;52.130;5.584;2022-11-28T00:06:34;13.43;;;9.48;;
75320;SDS011;63920;52.130;5.584;2022-11-28T00:09:09;14.68;;;9.98;;
75320;SDS011;63920;52.130;5.584;2022-11-28T00:11:37;12.45;;;10.75;;
75320;SDS011;63920;52.130;5.584;2022-11-28T00:14:04;12.93;;;10.00;;
75320;SDS011;63920;52.130;5.584;2022-11-28T00:16:30;14.63;;;9.70;;
75320;SDS011;63920;52.130;5.584;2022-11-28T00:18:57;10.85;;;9.15;;
75320;SDS011;63920;52.130;5.584;2022-11-28T00:21:24;11.25;;;9.18;;
75320;SDS011;63920;52.130;5.584;2022-11-28T00:23:50;12.20;;;8.57;;
75320;SDS011;63920;52.130;5.584;2022-11-28T00:26:24;10.95;;;8.93;;
75320;SDS011;63920;52.130;5.584;2022-11-28T00:28:50;14.93;;;9.10;;
75320;SDS011;63920;52.130;5.584;2022-11-28T00:31:20;10.45;;;8.82;;
75320;SDS011;63920;52.130;5.584;2022-11-28T00:33:48;13.57;;;8.43;;
75320;SDS011;63920;52.130;5.584;2022-11-28T00:36:13;11.00;;;8.23;;
75320;SDS011;63920;52.130;5.584;2022-11-28T00:38:39;11.75;;;8.50;;
75320;SDS011;63920;52.130;5.584;2022-11-28T00:41:06;11.10;;;8.55;;
75320;SDS011;63920;52.130;5.584;2022-11-28T00:43:34;11.25;;;8.50;;
75320;SDS011;63920;52.130;5.584;2022-11-28T00:46:00;10.70;;;8.13;;
75320;SDS011;63920;52.130;5.584;2022-11-28T00:48:26;14.15;;;8.25;;
75320;SDS011;63920;52.130;5.584;2022-11-28T00:50:52;11.20;;;8.27;;
75320;SDS011;63920;52.130;5.584;2022-11-28T00:53:18;11.82;;;7.88;;
75320;SDS011;63920;52.130;5.584;2022-11-28T00:55:43;17.58;;;9.20;;
75320;SDS011;63920;52.130;5.584;2022-11-28T00:58:09;14.10;;;8.43;;
75320;SDS011;63920;52.130;5.584;2022-11-28T01:00:35;9.48;;;7.82;;
75320;SDS011;63920;52.130;5.584;2022-11-28T01:03:01;12.65;;;8.60;;
75320;SDS011;63920;52.130;5.584;2022-11-28T01:05:26;12.95;;;9.18;;
75320;SDS011;63920;52.130;5.584;2022-11-28T01:07:52;10.85;;;8.65;;
75320;SDS011;63920;52.130;5.584;2022-11-28T01:10:17;13.07;;;9.40;;
75320;SDS011;63920;52.130;5.584;2022-11-28T01:12:43;10.10;;;8.35;;
75320;SDS011;63920;52.130;5.584;2022-11-28T01:15:10;10.32;;;8.38;;
75320;SDS011;63920;52.130;5.584;2022-11-28T01:17:36;10.27;;;8.40;;
75320;SDS011;63920;52.130;5.584;2022-11-28T01:20:03;12.70;;;8.65;;
75320;SDS011;63920;52.130;5.584;2022-11-28T01:22:31;11.68;;;9.35;;
75320;SDS011;63920;52.130;5.584;2022-11-28T01:24:57;12.23;;;9.27;;
75320;SDS011;63920;52.130;5.584;2022-11-28T01:27:22;15.65;;;9.90;;
75320;SDS011;63920;52.130;5.584;2022-11-28T01:29:48;15.18;;;9.55;;
75320;SDS011;63920;52.130;5.584;2022-11-28T01:32:13;11.13;;;8.88;;
75320;SDS011;63920;52.130;5.584;2022-11-28T01:34:39;13.68;;;9.15;;
75320;SDS011;63920;52.130;5.584;2022-11-28T01:37:04;12.52;;;9.13;;
75320;SDS011;63920;52.130;5.584;2022-11-28T01:39:30;12.88;;;9.15;;
75320;SDS011;63920;52.130;5.584;2022-11-28T01:41:56;12.48;;;8.85;;
75320;SDS011;63920;52.130;5.584;2022-11-28T01:46:47;13.10;;;9.77;;
75320;SDS011;63920;52.130;5.584;2022-11-28T01:49:16;14.98;;;10.68;;
75320;SDS011;63920;52.130;5.584;2022-11-28T01:51:50;10.80;;;8.93;;
75320;SDS011;63920;52.130;5.584;2022-11-28T01:54:19;14.05;;;9.95;;
75320;SDS011;63920;52.130;5.584;2022-11-28T01:56:52;13.55;;;8.95;;
75320;SDS011;63920;52.130;5.584;2022-11-28T01:59:21;14.45;;;9.57;;
75320;SDS011;63920;52.130;5.584;2022-11-28T02:01:51;14.65;;;9.88;;
75320;SDS011;63920;52.130;5.584;2022-11-28T02:04:16;11.77;;;9.73;;
75320;SDS011;63920;52.130;5.584;2022-11-28T02:06:42;15.43;;;10.00;;
75320;SDS011;63920;52.130;5.584;2022-11-28T02:09:09;11.52;;;8.85;;
75320;SDS011;63920;52.130;5.584;2022-11-28T02:22:59;13.77;;;9.80;;
75320;SDS011;63920;52.130;5.584;2022-11-28T02:33:52;8.45;;;7.20;;
75320;SDS011;63920;52.130;5.584;2022-11-28T02:47:06;11.02;;;7.45;;
75320;SDS011;63920;52.130;5.584;2022-11-28T02:49:48;11.70;;;7.32;;
75320;SDS011;63920;52.130;5.584;2022-11-28T02:52:21;10.85;;;7.32;;
75320;SDS011;63920;52.130;5.584;2022-11-28T02:54:51;11.05;;;7.30;;
75320;SDS011;63920;52.130;5.584;2022-11-28T02:57:19;14.20;;;7.65;;
75320;SDS011;63920;52.130;5.584;2022-11-28T02:59:46;9.15;;;7.15;;
75320;SDS011;63920;52.130;5.584;2022-11-28T03:02:18;13.27;;;7.82;;
75320;SDS011;63920;52.130;5.584;2022-11-28T03:10:34;9.93;;;6.80;;
75320;SDS011;63920;52.130;5.584;2022-11-28T03:18:39;8.98;;;6.35;;
75320;SDS011;63920;52.130;5.584;2022-11-28T03:21:31;14.45;;;6.70;;
75320;SDS011;63920;52.130;5.584;2022-11-28T03:24:11;7.80;;;6.78;;
75320;SDS011;63920;52.130;5.584;2022-11-28T03:26:46;10.70;;;6.28;;
75320;SDS011;63920;52.130;5.584;2022-11-28T03:29:22;10.20;;;6.72;;
75320;SDS011;63920;52.130;5.584;2022-11-28T03:31:56;8.98;;;6.68;;
75320;SDS011;63920;52.130;5.584;2022-11-28T03:34:31;10.45;;;6.13;;
75320;SDS011;63920;52.130;5.584;2022-11-28T03:37:00;11.40;;;6.35;;
75320;SDS011;63920;52.130;5.584;2022-11-28T03:39:32;7.03;;;6.22;;
75320;SDS011;63920;52.130;5.584;2022-11-28T03:42:06;8.32;;;6.38;;
75320;SDS011;63920;52.130;5.584;2022-11-28T03:44:37;9.65;;;6.57;;
75320;SDS011;63920;52.130;5.584;2022-11-28T03:47:09;9.18;;;6.72;;
75320;SDS011;63920;52.130;5.584;2022-11-28T03:49:37;7.90;;;7.07;;
75320;SDS011;63920;52.130;5.584;2022-11-28T03:52:31;9.50;;;7.03;;
75320;SDS011;63920;52.130;5.584;2022-11-28T03:54:59;9.07;;;6.70;;
75320;SDS011;63920;52.130;5.584;2022-11-28T03:57:34;8.77;;;6.70;;
75320;SDS011;63920;52.130;5.584;2022-11-28T04:00:06;8.02;;;7.22;;
75320;SDS011;63920;52.130;5.584;2022-11-28T04:02:39;13.02;;;6.93;;
75320;SDS011;63920;52.130;5.584;2022-11-28T04:05:21;9.60;;;7.20;;
75320;SDS011;63920;52.130;5.584;2022-11-28T04:15:38;8.10;;;6.95;;
75320;SDS011;63920;52.130;5.584;2022-11-28T04:18:28;7.07;;;6.47;;
75320;SDS011;63920;52.130;5.584;2022-11-28T04:23:27;11.90;;;7.43;;
75320;SDS011;63920;52.130;5.584;2022-11-28T04:25:57;10.55;;;6.68;;
75320;SDS011;63920;52.130;5.584;2022-11-28T04:28:38;7.82;;;7.00;;
75320;SDS011;63920;52.130;5.584;2022-11-28T04:31:05;7.47;;;6.65;;
75320;SDS011;63920;52.130;5.584;2022-11-28T04:33:34;8.80;;;7.45;;
75320;SDS011;63920;52.130;5.584;2022-11-28T04:36:02;8.48;;;7.50;;
75320;SDS011;63920;52.130;5.584;2022-11-28T04:38:30;9.23;;;7.40;;
75320;SDS011;63920;52.130;5.584;2022-11-28T04:41:05;10.45;;;6.82;;
75320;SDS011;63920;52.130;5.584;2022-11-28T04:43:34;8.13;;;7.07;;
75320;SDS011;63920;52.130;5.584;2022-11-28T04:46:14;11.38;;;7.97;;
75320;SDS011;63920;52.130;5.584;2022-11-28T04:48:48;9.35;;;7.05;;
75320;SDS011;63920;52.130;5.584;2022-11-28T04:54:00;9.35;;;7.32;;
75320;SDS011;63920;52.130;5.584;2022-11-28T04:56:35;8.05;;;7.13;;
75320;SDS011;63920;52.130;5.584;2022-11-28T04:59:08;9.20;;;6.95;;
75320;SDS011;63920;52.130;5.584;2022-11-28T05:01:36;11.30;;;7.72;;
75320;SDS011;63920;52.130;5.584;2022-11-28T05:04:04;9.85;;;7.50;;
75320;SDS011;63920;52.130;5.584;2022-11-28T05:06:33;8.95;;;7.63;;
75320;SDS011;63920;52.130;5.584;2022-11-28T05:08:59;7.72;;;6.65;;
75320;SDS011;63920;52.130;5.584;2022-11-28T05:11:25;7.93;;;6.88;;
75320;SDS011;63920;52.130;5.584;2022-11-28T05:13:52;9.50;;;7.78;;
75320;SDS011;63920;52.130;5.584;2022-11-28T05:16:18;10.57;;;7.47;;
75320;SDS011;63920;52.130;5.584;2022-11-28T05:18:44;10.25;;;8.15;;
75320;SDS011;63920;52.130;5.584;2022-11-28T05:21:10;8.32;;;6.93;;
75320;SDS011;63920;52.130;5.584;2022-11-28T05:23:37;10.32;;;6.95;;
75320;SDS011;63920;52.130;5.584;2022-11-28T05:26:08;8.50;;;6.78;;
75320;SDS011;63920;52.130;5.584;2022-11-28T05:28:36;9.15;;;7.60;;
75320;SDS011;63920;52.130;5.584;2022-11-28T05:31:01;7.32;;;6.43;;
75320;SDS011;63920;52.130;5.584;2022-11-28T05:33:28;7.45;;;6.75;;
75320;SDS011;63920;52.130;5.584;2022-11-28T05:35:55;7.60;;;6.63;;
75320;SDS011;63920;52.130;5.584;2022-11-28T05:38:21;9.05;;;7.28;;
75320;SDS011;63920;52.130;5.584;2022-11-28T05:40:47;8.10;;;7.13;;
75320;SDS011;63920;52.130;5.584;2022-11-28T05:43:13;8.13;;;6.95;;
75320;SDS011;63920;52.130;5.584;2022-11-28T05:45:42;10.35;;;7.07;;
75320;SDS011;63920;52.130;5.584;2022-11-28T05:48:08;7.45;;;6.45;;
75320;SDS011;63920;52.130;5.584;2022-11-28T05:50:37;7.65;;;6.85;;
75320;SDS011;63920;52.130;5.584;2022-11-28T05:53:03;8.15;;;6.90;;
75320;SDS011;63920;52.130;5.584;2022-11-28T05:55:28;7.95;;;7.15;;
75320;SDS011;63920;52.130;5.584;2022-11-28T05:57:54;8.40;;;7.22;;
75320;SDS011;63920;52.130;5.584;2022-11-28T06:00:20;10.10;;;7.32;;
75320;SDS011;63920;52.130;5.584;2022-11-28T06:02:46;8.38;;;7.40;;
75320;SDS011;63920;52.130;5.584;2022-11-28T06:05:12;8.52;;;7.60;;
75320;SDS011;63920;52.130;5.584;2022-11-28T06:07:37;8.48;;;6.45;;
75320;SDS011;63920;52.130;5.584;2022-11-28T06:10:03;7.38;;;6.68;;
75320;SDS011;63920;52.130;5.584;2022-11-28T06:12:29;7.55;;;6.40;;
75320;SDS011;63920;52.130;5.584;2022-11-28T06:14:54;7.43;;;6.65;;
75320;SDS011;63920;52.130;5.584;2022-11-28T06:17:20;6.65;;;6.05;;
75320;SDS011;63920;52.130;5.584;2022-11-28T06:19:45;8.40;;;7.22;;
75320;SDS011;63920;52.130;5.584;2022-11-28T06:22:11;6.95;;;6.32;;
75320;SDS011;63920;52.130;5.584;2022-11-28T06:24:36;7.85;;;6.72;;
75320;SDS011;63920;52.130;5.584;2022-11-28T06:27:02;7.35;;;6.10;;
75320;SDS011;63920;52.130;5.584;2022-11-28T06:29:28;7.75;;;6.95;;
75320;SDS011;63920;52.130;5.584;2022-11-28T06:31:53;7.00;;;6.38;;
75320;SDS011;63920;52.130;5.584;2022-11-28T06:34:20;7.68;;;6.53;;
75320;SDS011;63920;52.130;5.584;2022-11-28T06:36:46;7.93;;;7.13;;
75320;SDS011;63920;52.130;5.584;2022-11-28T06:39:12;7.47;;;6.78;;
75320;SDS011;63920;52.130;5.584;2022-11-28T06:41:39;7.30;;;6.70;;
75320;SDS011;63920;52.130;5.584;2022-11-28T06:44:05;6.93;;;6.43;;
75320;SDS011;63920;52.130;5.584;2022-11-28T06:46:31;8.20;;;7.40;;
75320;SDS011;63920;52.130;5.584;2022-11-28T06:48:57;7.75;;;7.05;;
75320;SDS011;63920;52.130;5.584;2022-11-28T06:51:23;7.40;;;6.72;;
75320;SDS011;63920;52.130;5.584;2022-11-28T06:53:48;7.53;;;6.60;;
75320;SDS011;63920;52.130;5.584;2022-11-28T06:56:15;8.75;;;7.90;;
75320;SDS011;63920;52.130;5.584;2022-11-28T06:58:43;7.90;;;7.18;;
75320;SDS011;63920;52.130;5.584;2022-11-28T07:01:14;8.25;;;7.45;;
75320;SDS011;63920;52.130;5.584;2022-11-28T07:03:41;8.10;;;7.32;;
75320;SDS011;63920;52.130;5.584;2022-11-28T07:06:08;7.90;;;7.20;;
75320;SDS011;63920;52.130;5.584;2022-11-28T07:08:34;8.70;;;7.20;;
75320;SDS011;63920;52.130;5.584;2022-11-28T07:11:33;7.90;;;7.10;;
75320;SDS011;63920;52.130;5.584;2022-11-28T07:13:53;8.27;;;7.07;;
75320;SDS011;63920;52.130;5.584;2022-11-28T07:16:20;8.80;;;7.95;;
75320;SDS011;63920;52.130;5.584;2022-11-28T07:18:51;8.35;;;7.65;;
75320;SDS011;63920;52.130;5.584;2022-11-28T07:21:18;9.10;;;7.95;;
75320;SDS011;63920;52.130;5.584;2022-11-28T07:23:44;9.40;;;8.38;;
75320;SDS011;63920;52.130;5.584;2022-11-28T07:26:10;10.57;;;8.50;;
75320;SDS011;63920;52.130;5.584;2022-11-28T07:28:38;9.70;;;8.10;;
75320;SDS011;63920;52.130;5.584;2022-11-28T07:31:08;9.32;;;8.40;;
75320;SDS011;63920;52.130;5.584;2022-11-28T07:33:38;11.02;;;8.57;;
75320;SDS011;63920;52.130;5.584;2022-11-28T07:36:06;10.55;;;9.07;;
75320;SDS011;63920;52.130;5.584;2022-11-28T07:38:35;10.85;;;9.38;;
75320;SDS011;63920;52.130;5.584;2022-11-28T07:41:07;19.35;;;9.27;;
75320;SDS011;63920;52.130;5.584;2022-11-28T07:43:34;14.55;;;9.45;;
75320;SDS011;63920;52.130;5.584;2022-11-28T07:46:07;11.32;;;9.30;;
75320;SDS011;63920;52.130;5.584;2022-11-28T07:48:34;10.82;;;9.63;;
75320;SDS011;63920;52.130;5.584;2022-11-28T07:51:08;11.55;;;9.50;;
75320;SDS011;63920;52.130;5.584;2022-11-28T07:53:35;12.35;;;9.57;;
75320;SDS011;63920;52.130;5.584;2022-11-28T07:56:02;11.38;;;10.13;;
75320;SDS011;63920;52.130;5.584;2022-11-28T07:58:29;12.38;;;10.68;;
75320;SDS011;63920;52.130;5.584;2022-11-28T08:00:55;12.82;;;9.90;;
75320;SDS011;63920;52.130;5.584;2022-11-28T08:03:20;11.20;;;9.95;;
75320;SDS011;63920;52.130;5.584;2022-11-28T08:05:47;11.63;;;9.57;;
75320;SDS011;63920;52.130;5.584;2022-11-28T08:08:16;10.43;;;9.43;;
75320;SDS011;63920;52.130;5.584;2022-11-28T08:10:44;11.90;;;10.48;;
75320;SDS011;63920;52.130;5.584;2022-11-28T08:13:10;10.77;;;9.73;;
75320;SDS011;63920;52.130;5.584;2022-11-28T08:15:37;12.57;;;9.93;;
75320;SDS011;63920;52.130;5.584;2022-11-28T08:18:03;13.77;;;10.88;;
75320;SDS011;63920;52.130;5.584;2022-11-28T08:20:29;12.63;;;10.68;;
75320;SDS011;63920;52.130;5.584;2022-11-28T08:22:54;14.05;;;10.75;;
75320;SDS011;63920;52.130;5.584;2022-11-28T08:25:20;12.68;;;10.93;;
75320;SDS011;63920;52.130;5.584;2022-11-28T08:27:46;12.70;;;11.00;;
75320;SDS011;63920;52.130;5.584;2022-11-28T08:30:11;15.63;;;11.57;;
75320;SDS011;63920;52.130;5.584;2022-11-28T08:32:37;14.02;;;11.15;;
75320;SDS011;63920;52.130;5.584;2022-11-28T08:35:03;11.93;;;10.55;;
75320;SDS011;63920;52.130;5.584;2022-11-28T08:37:31;13.32;;;10.93;;
75320;SDS011;63920;52.130;5.584;2022-11-28T08:39:56;12.98;;;11.32;;
75320;SDS011;63920;52.130;5.584;2022-11-28T08:42:22;12.00;;;10.52;;
75320;SDS011;63920;52.130;5.584;2022-11-28T08:44:47;13.15;;;10.25;;
75320;SDS011;63920;52.130;5.584;2022-11-28T08:47:13;11.80;;;10.43;;
75320;SDS011;63920;52.130;5.584;2022-11-28T08:49:39;13.57;;;10.88;;
75320;SDS011;63920;52.130;5.584;2022-11-28T08:52:04;12.52;;;10.40;;
75320;SDS011;63920;52.130;5.584;2022-11-28T08:54:30;13.05;;;10.23;;
75320;SDS011;63920;52.130;5.584;2022-11-28T08:56:56;12.55;;;11.25;;
75320;SDS011;63920;52.130;5.584;2022-11-28T08:59:22;12.88;;;10.88;;
75320;SDS011;63920;52.130;5.584;2022-11-28T09:01:50;13.27;;;11.10;;
75320;SDS011;63920;52.130;5.584;2022-11-28T09:04:17;13.60;;;10.85;;
75320;SDS011;63920;52.130;5.584;2022-11-28T09:06:43;13.52;;;10.95;;
75320;SDS011;63920;52.130;5.584;2022-11-28T09:09:09;14.50;;;10.20;;
75320;SDS011;63920;52.130;5.584;2022-11-28T09:11:34;11.07;;;9.88;;
75320;SDS011;63920;52.130;5.584;2022-11-28T09:14:00;10.77;;;9.60;;
75320;SDS011;63920;52.130;5.584;2022-11-28T09:16:26;13.57;;;10.00;;
75320;SDS011;63920;52.130;5.584;2022-11-28T09:18:52;10.27;;;9.18;;
75320;SDS011;63920;52.130;5.584;2022-11-28T09:21:19;11.30;;;9.45;;
75320;SDS011;63920;52.130;5.584;2022-11-28T09:23:44;13.05;;;9.43;;
75320;SDS011;63920;52.130;5.584;2022-11-28T09:26:10;10.38;;;9.32;;
75320;SDS011;63920;52.130;5.584;2022-11-28T09:28:38;12.93;;;9.25;;
75320;SDS011;63920;52.130;5.584;2022-11-28T09:31:04;11.65;;;9.68;;
75320;SDS011;63920;52.130;5.584;2022-11-28T09:33:30;11.50;;;9.35;;
75320;SDS011;63920;52.130;5.584;2022-11-28T09:35:57;10.23;;;9.20;;
75320;SDS011;63920;52.130;5.584;2022-11-28T09:38:23;9.82;;;8.82;;
75320;SDS011;63920;52.130;5.584;2022-11-28T09:40:50;11.75;;;9.23;;
75320;SDS011;63920;52.130;5.584;2022-11-28T09:45:52;9.32;;;8.48;;
75320;SDS011;63920;52.130;5.584;2022-11-28T09:48:27;10.07;;;9.07;;
75320;SDS011;63920;52.130;5.584;2022-11-28T09:51:20;10.10;;;8.68;;
75320;SDS011;63920;52.130;5.584;2022-11-28T09:56:34;9.93;;;8.93;;
75320;SDS011;63920;52.130;5.584;2022-11-28T09:59:05;12.07;;;10.45;;
75320;SDS011;63920;52.130;5.584;2022-11-28T10:14:51;16.88;;;11.40;;
75320;SDS011;63920;52.130;5.584;2022-11-28T10:20:21;19.33;;;13.15;;
75320;SDS011;63920;52.130;5.584;2022-11-28T10:22:53;17.15;;;13.13;;
75320;SDS011;63920;52.130;5.584;2022-11-28T10:25:25;23.85;;;13.85;;
75320;SDS011;63920;52.130;5.584;2022-11-28T10:27:53;20.35;;;13.32;;
75320;SDS011;63920;52.130;5.584;2022-11-28T10:30:23;21.52;;;13.48;;
75320;SDS011;63920;52.130;5.584;2022-11-28T10:33:08;23.20;;;14.32;;
75320;SDS011;63920;52.130;5.584;2022-11-28T10:35:46;26.60;;;15.10;;
75320;SDS011;63920;52.130;5.584;2022-11-28T10:38:16;24.30;;;15.05;;
75320;SDS011;63920;52.130;5.584;2022-11-28T10:40:48;27.08;;;15.90;;
75320;SDS011;63920;52.130;5.584;2022-11-28T10:43:31;27.17;;;16.10;;
75320;SDS011;63920;52.130;5.584;2022-11-28T10:51:26;29.52;;;17.40;;
75320;SDS011;63920;52.130;5.584;2022-11-28T10:54:53;37.65;;;18.90;;
75320;SDS011;63920;52.130;5.584;2022-11-28T11:00:12;35.13;;;19.33;;
75320;SDS011;63920;52.130;5.584;2022-11-28T11:02:45;35.38;;;18.67;;
75320;SDS011;63920;52.130;5.584;2022-11-28T11:05:17;34.00;;;19.02;;
75320;SDS011;63920;52.130;5.584;2022-11-28T11:07:55;44.60;;;22.08;;
75320;SDS011;63920;52.130;5.584;2022-11-28T11:10:49;38.78;;;21.38;;
75320;SDS011;63920;52.130;5.584;2022-11-28T11:13:17;37.55;;;20.98;;
75320;SDS011;63920;52.130;5.584;2022-11-28T11:16:06;32.72;;;18.80;;
75320;SDS011;63920;52.130;5.584;2022-11-28T11:18:36;38.25;;;21.10;;
75320;SDS011;63920;52.130;5.584;2022-11-28T11:21:14;43.08;;;20.50;;
75320;SDS011;63920;52.130;5.584;2022-11-28T11:23:43;34.00;;;18.88;;
75320;SDS011;63920;52.130;5.584;2022-11-28T11:26:19;38.28;;;21.15;;
75320;SDS011;63920;52.130;5.584;2022-11-28T11:28:51;34.85;;;21.00;;
75320;SDS011;63920;52.130;5.584;2022-11-28T11:31:18;39.97;;;21.58;;
75320;SDS011;63920;52.130;5.584;2022-11-28T11:33:47;38.95;;;20.63;;
75320;SDS011;63920;52.130;5.584;2022-11-28T11:36:30;32.53;;;19.38;;
75320;SDS011;63920;52.130;5.584;2022-11-28T11:41:36;38.85;;;20.52;;
75320;SDS011;63920;52.130;5.584;2022-11-28T11:49:27;42.17;;;22.23;;
75320;SDS011;63920;52.130;5.584;2022-11-28T11:52:11;43.47;;;24.35;;
75320;SDS011;63920;52.130;5.584;2022-11-28T11:54:51;41.33;;;21.95;;
75320;SDS011;63920;52.130;5.584;2022-11-28T11:57:21;44.45;;;22.90;;
75320;SDS011;63920;52.130;5.584;2022-11-28T11:59:49;39.72;;;22.13;;
75320;SDS011;63920;52.130;5.584;2022-11-28T12:05:23;42.28;;;23.27;;
75320;SDS011;63920;52.130;5.584;2022-11-28T12:10:36;44.72;;;24.05;;
75320;SDS011;63920;52.130;5.584;2022-11-28T12:13:16;45.88;;;23.67;;
75320;SDS011;63920;52.130;5.584;2022-11-28T12:18:49;42.67;;;23.63;;
75320;SDS011;63920;52.130;5.584;2022-11-28T12:21:31;43.75;;;24.95;;
75320;SDS011;63920;52.130;5.584;2022-11-28T12:24:06;51.45;;;26.50;;
75320;SDS011;63920;52.130;5.584;2022-11-28T12:32:34;51.88;;;27.17;;
75320;SDS011;63920;52.130;5.584;2022-11-28T12:35:16;44.83;;;25.40;;
75320;SDS011;63920;52.130;5.584;2022-11-28T12:43:44;43.75;;;24.90;;
75320;SDS011;63920;52.130;5.584;2022-11-28T12:54:50;46.08;;;25.23;;
75320;SDS011;63920;52.130;5.584;2022-11-28T12:58:25;46.38;;;24.90;;
75320;SDS011;63920;52.130;5.584;2022-11-28T13:00:45;47.45;;;25.33;;
75320;SDS011;63920;52.130;5.584;2022-11-28T13:09:24;44.50;;;25.92;;
75320;SDS011;63920;52.130;5.584;2022-11-28T13:12:06;44.33;;;25.30;;
75320;SDS011;63920;52.130;5.584;2022-11-28T13:15:14;43.45;;;24.73;;
75320;SDS011;63920;52.130;5.584;2022-11-28T13:20:18;45.53;;;26.23;;
75320;SDS011;63920;52.130;5.584;2022-11-28T13:23:05;48.35;;;27.23;;
75320;SDS011;63920;52.130;5.584;2022-11-28T13:25:53;49.22;;;26.17;;
75320;SDS011;63920;52.130;5.584;2022-11-28T13:28:32;47.88;;;26.63;;
75320;SDS011;63920;52.130;5.584;2022-11-28T13:34:14;49.05;;;27.20;;
75320;SDS011;63920;52.130;5.584;2022-11-28T13:36:42;51.95;;;28.30;;
75320;SDS011;63920;52.130;5.584;2022-11-28T13:39:32;45.95;;;26.40;;
75320;SDS011;63920;52.130;5.584;2022-11-28T13:45:26;45.63;;;26.45;;
75320;SDS011;63920;52.130;5.584;2022-11-28T13:47:58;52.80;;;28.80;;
75320;SDS011;63920;52.130;5.584;2022-11-28T13:50:31;55.33;;;29.55;;
75320;SDS011;63920;52.130;5.584;2022-11-28T13:58:09;48.00;;;27.95;;
75320;SDS011;63920;52.130;5.584;2022-11-28T14:04:02;50.75;;;28.35;;
75320;SDS011;63920;52.130;5.584;2022-11-28T14:06:25;56.35;;;29.25;;
75320;SDS011;63920;52.130;5.584;2022-11-28T14:11:38;59.33;;;31.08;;
75320;SDS011;63920;52.130;5.584;2022-11-28T14:25:51;64.78;;;31.08;;
75320;SDS011;63920;52.130;5.584;2022-11-28T14:28:20;64.85;;;33.30;;
75320;SDS011;63920;52.130;5.584;2022-11-28T14:31:46;64.13;;;33.35;;
75320;SDS011;63920;52.130;5.584;2022-11-28T14:33:57;59.50;;;31.17;;
75320;SDS011;63920;52.130;5.584;2022-11-28T14:38:58;65.00;;;32.88;;
75320;SDS011;63920;52.130;5.584;2022-11-28T14:52:29;65.30;;;32.60;;
75320;SDS011;63920;52.130;5.584;2022-11-28T14:54:55;63.13;;;31.17;;
75320;SDS011;63920;52.130;5.584;2022-11-28T14:57:29;64.97;;;31.63;;
75320;SDS011;63920;52.130;5.584;2022-11-28T15:00:03;65.95;;;31.33;;
75320;SDS011;63920;52.130;5.584;2022-11-28T15:05:38;70.60;;;33.03;;
75320;SDS011;63920;52.130;5.584;2022-11-28T15:16:10;59.25;;;30.13;;
75320;SDS011;63920;52.130;5.584;2022-11-28T15:18:38;66.93;;;32.50;;
75320;SDS011;63920;52.130;5.584;2022-11-28T15:21:13;70.05;;;33.65;;
75320;SDS011;63920;52.130;5.584;2022-11-28T15:23:41;69.40;;;33.40;;
75320;SDS011;63920;52.130;5.584;2022-11-28T15:26:14;61.88;;;30.98;;
75320;SDS011;63920;52.130;5.584;2022-11-28T15:31:39;67.22;;;33.58;;
75320;SDS011;63920;52.130;5.584;2022-11-28T15:34:07;74.43;;;34.55;;
75320;SDS011;63920;52.130;5.584;2022-11-28T15:36:33;66.57;;;32.50;;
75320;SDS011;63920;52.130;5.584;2022-11-28T15:39:00;65.82;;;31.20;;
75320;SDS011;63920;52.130;5.584;2022-11-28T15:41:26;72.00;;;35.45;;
75320;SDS011;63920;52.130;5.584;2022-11-28T15:43:52;81.30;;;35.65;;
75320;SDS011;63920;52.130;5.584;2022-11-28T15:46:23;71.35;;;33.63;;
75320;SDS011;63920;52.130;5.584;2022-11-28T15:48:55;83.40;;;35.67;;
75320;SDS011;63920;52.130;5.584;2022-11-28T15:51:30;68.43;;;35.25;;
75320;SDS011;63920;52.130;5.584;2022-11-28T15:53:57;71.45;;;33.97;;
75320;SDS011;63920;52.130;5.584;2022-11-28T15:56:24;71.15;;;34.38;;
75320;SDS011;63920;52.130;5.584;2022-11-28T15:58:50;69.57;;;32.97;;
75320;SDS011;63920;52.130;5.584;2022-11-28T16:01:21;78.93;;;38.00;;
75320;SDS011;63920;52.130;5.584;2022-11-28T16:03:52;75.65;;;35.00;;
75320;SDS011;63920;52.130;5.584;2022-11-28T16:06:36;75.88;;;35.22;;
75320;SDS011;63920;52.130;5.584;2022-11-28T16:09:04;67.32;;;32.95;;
75320;SDS011;63920;52.130;5.584;2022-11-28T16:11:34;69.30;;;34.25;;
75320;SDS011;63920;52.130;5.584;2022-11-28T16:14:04;72.68;;;33.35;;
75320;SDS011;63920;52.130;5.584;2022-11-28T16:16:33;74.03;;;33.88;;
75320;SDS011;63920;52.130;5.584;2022-11-28T16:19:01;80.03;;;35.25;;
75320;SDS011;63920;52.130;5.584;2022-11-28T16:25:09;72.97;;;36.83;;
75320;SDS011;63920;52.130;5.584;2022-11-28T16:27:32;75.20;;;36.08;;
75320;SDS011;63920;52.130;5.584;2022-11-28T16:30:24;82.15;;;37.70;;
75320;SDS011;63920;52.130;5.584;2022-11-28T16:32:50;80.95;;;36.67;;
75320;SDS011;63920;52.130;5.584;2022-11-28T16:35:27;76.35;;;36.08;;
75320;SDS011;63920;52.130;5.584;2022-11-28T16:38:04;72.25;;;36.30;;
75320;SDS011;63920;52.130;5.584;2022-11-28T16:40:30;72.97;;;34.80;;
75320;SDS011;63920;52.130;5.584;2022-11-28T16:42:56;71.05;;;32.47;;
75320;SDS011;63920;52.130;5.584;2022-11-28T16:45:32;69.68;;;33.17;;
75320;SDS011;63920;52.130;5.584;2022-11-28T16:48:08;70.30;;;34.03;;
75320;SDS011;63920;52.130;5.584;2022-11-28T16:50:40;69.35;;;33.88;;
75320;SDS011;63920;52.130;5.584;2022-11-28T16:58:59;73.95;;;34.60;;
75320;SDS011;63920;52.130;5.584;2022-11-28T17:01:37;71.63;;;32.63;;
75320;SDS011;63920;52.130;5.584;2022-11-28T17:04:03;77.80;;;34.90;;
75320;SDS011;63920;52.130;5.584;2022-11-28T17:06:30;82.32;;;36.83;;
75320;SDS011;63920;52.130;5.584;2022-11-28T17:09:00;70.25;;;34.42;;
75320;SDS011;63920;52.130;5.584;2022-11-28T17:11:34;75.25;;;33.15;;
75320;SDS011;63920;52.130;5.584;2022-11-28T17:14:02;74.90;;;34.15;;
75320;SDS011;63920;52.130;5.584;2022-11-28T17:16:29;63.00;;;31.60;;
75320;SDS011;63920;52.130;5.584;2022-11-28T17:19:00;67.10;;;32.88;;
75320;SDS011;63920;52.130;5.584;2022-11-28T17:23:57;69.35;;;33.80;;
75320;SDS011;63920;52.130;5.584;2022-11-28T17:26:27;66.03;;;31.98;;
75320;SDS011;63920;52.130;5.584;2022-11-28T17:28:53;67.93;;;33.40;;
75320;SDS011;63920;52.130;5.584;2022-11-28T17:31:19;72.93;;;34.20;;
75320;SDS011;63920;52.130;5.584;2022-11-28T17:33:46;88.35;;;36.17;;
75320;SDS011;63920;52.130;5.584;2022-11-28T17:36:11;77.85;;;36.50;;
75320;SDS011;63920;52.130;5.584;2022-11-28T17:38:37;74.93;;;35.45;;
75320;SDS011;63920;52.130;5.584;2022-11-28T17:41:03;74.82;;;34.20;;
75320;SDS011;63920;52.130;5.584;2022-11-28T17:43:29;72.93;;;33.75;;
75320;SDS011;63920;52.130;5.584;2022-11-28T17:45:55;77.68;;;36.35;;
75320;SDS011;63920;52.130;5.584;2022-11-28T17:48:21;78.07;;;34.97;;
75320;SDS011;63920;52.130;5.584;2022-11-28T17:50:48;73.30;;;35.22;;
75320;SDS011;63920;52.130;5.584;2022-11-28T17:53:16;76.03;;;34.90;;
75320;SDS011;63920;52.130;5.584;2022-11-28T17:55:43;68.05;;;31.35;;
75320;SDS011;63920;52.130;5.584;2022-11-28T17:58:14;74.88;;;31.98;;
75320;SDS011;63920;52.130;5.584;2022-11-28T18:00:41;75.18;;;34.53;;
75320;SDS011;63920;52.130;5.584;2022-11-28T18:03:07;73.50;;;33.40;;
75320;SDS011;63920;52.130;5.584;2022-11-28T18:05:36;70.40;;;33.67;;
75320;SDS011;63920;52.130;5.584;2022-11-28T18:08:03;74.80;;;33.75;;
75320;SDS011;63920;52.130;5.584;2022-11-28T18:10:29;56.80;;;30.92;;